createdAt,value
2022-12-18T00:05:01.910Z,88.95
2022-12-18T00:10:05.444Z,89.09
2022-12-18T00:15:09.992Z,89.23
2022-12-18T00:20:12.866Z,89.29
2022-12-18T00:25:15.611Z,89.26
2022-12-18T00:30:19.827Z,89.14
2022-12-18T00:35:22.364Z,89.03
2022-12-18T00:40:24.867Z,89.16
2022-12-18T00:45:30.691Z,89.50
2022-12-18T00:50:33.213Z,89.58
2022-12-18T00:55:36.483Z,89.47
2022-12-18T01:00:40.471Z,89.26
2022-12-18T01:05:43.806Z,89.62
2022-12-18T01:10:46.382Z,89.81
2022-12-18T01:15:52.049Z,89.40
2022-12-18T01:20:54.553Z,89.68
2022-12-18T01:25:57.059Z,89.91
2022-12-18T01:31:11.574Z,89.83
2022-12-18T01:36:18.596Z,89.95
2022-12-18T01:41:23.274Z,89.88
2022-12-18T01:46:28.800Z,90.08
2022-12-18T01:51:32.417Z,89.70
2022-12-18T01:56:34.920Z,89.80
2022-12-18T02:01:40.022Z,90.13
2022-12-18T02:06:43.837Z,90.05
2022-12-18T02:11:52.563Z,89.98
2022-12-18T02:17:02.364Z,90.22
2022-12-18T02:22:16.479Z,90.15
2022-12-18T02:27:20.793Z,89.74
2022-12-18T02:32:28.627Z,90.03
2022-12-18T02:37:33.716Z,90.11
2022-12-18T02:42:37.500Z,90.15
2022-12-18T02:47:45.447Z,90.10
2022-12-18T02:52:57.686Z,89.92
2022-12-18T02:58:07.184Z,89.52
2022-12-18T03:03:17.917Z,89.90
2022-12-18T03:08:24.144Z,89.95
2022-12-18T03:13:32.655Z,90.02
2022-12-18T03:18:39.729Z,89.48
2022-12-18T03:23:46.229Z,89.96
2022-12-18T03:28:53.228Z,89.54
2022-12-18T03:33:59.688Z,89.71
2022-12-18T03:39:02.255Z,89.87
2022-12-18T03:44:12.793Z,89.70
2022-12-18T03:49:23.394Z,89.60
2022-12-18T03:54:28.954Z,89.62
2022-12-18T03:59:34.814Z,89.37
2022-12-18T04:04:38.862Z,89.85
2022-12-18T04:09:43.655Z,89.42
2022-12-18T04:14:47.491Z,89.41
2022-12-18T04:19:50.028Z,89.62
2022-12-18T04:24:52.480Z,89.53
2022-12-18T04:29:56.261Z,89.53
2022-12-18T04:34:58.709Z,89.63
2022-12-18T04:40:01.157Z,89.44
2022-12-18T04:45:05.845Z,89.74
2022-12-18T04:50:09.067Z,89.72
2022-12-18T04:55:11.552Z,89.25
2022-12-18T05:00:16.466Z,89.74
2022-12-18T05:05:19.142Z,89.59
2022-12-18T05:10:21.624Z,89.65
2022-12-18T05:15:25.710Z,89.23
2022-12-18T05:20:29.581Z,89.43
2022-12-18T05:25:32.094Z,89.47
2022-12-18T05:30:36.171Z,89.68
2022-12-18T05:35:38.644Z,89.35
2022-12-18T05:40:43.691Z,89.18
2022-12-18T05:45:47.683Z,88.90
2022-12-18T05:50:51.953Z,88.74
2022-12-18T05:55:54.404Z,88.83
2022-12-18T06:00:58.552Z,89.07
2022-12-18T06:06:01.015Z,89.07
2022-12-18T06:11:03.464Z,89.13
2022-12-18T06:16:08.014Z,89.11
2022-12-18T06:21:10.676Z,89.17
2022-12-18T06:26:14.752Z,89.16
2022-12-18T06:31:18.592Z,89.14
2022-12-18T06:36:21.851Z,89.33
2022-12-18T06:41:24.362Z,89.25
2022-12-18T06:46:28.299Z,89.21
2022-12-18T06:51:30.893Z,88.80
2022-12-18T06:56:33.525Z,89.16
2022-12-18T07:01:37.617Z,88.91
2022-12-18T07:06:40.128Z,89.24
2022-12-18T07:11:42.638Z,89.22
2022-12-18T07:16:46.485Z,89.02
2022-12-18T07:21:48.942Z,89.14
2022-12-18T07:26:51.509Z,88.94
2022-12-18T07:31:55.378Z,88.84
2022-12-18T07:36:57.881Z,88.79
2022-12-18T07:42:18.645Z,88.67
2022-12-18T07:47:22.634Z,89.11
2022-12-18T07:52:26.326Z,88.84
2022-12-18T08:02:52.818Z,89.05
2022-12-18T08:07:56.982Z,89.27
2022-12-18T08:13:04.618Z,89.17
2022-12-18T08:18:13.889Z,89.26
2022-12-18T08:23:16.832Z,89.34
2022-12-18T08:28:19.511Z,89.30
2022-12-18T08:33:23.294Z,89.45
2022-12-18T08:38:25.765Z,89.38
2022-12-18T08:43:46.317Z,89.25
2022-12-18T08:48:52.774Z,89.66
2022-12-18T08:53:55.246Z,89.31
2022-12-18T08:58:58.322Z,89.80
2022-12-18T09:04:02.160Z,89.35
2022-12-18T09:09:05.776Z,89.51
2022-12-18T09:14:10.070Z,89.68
2022-12-18T09:19:14.873Z,89.55
2022-12-18T09:24:18.238Z,89.64
2022-12-18T09:29:22.074Z,89.86
2022-12-18T09:34:57.449Z,89.92
2022-12-18T09:40:02.174Z,90.20
2022-12-18T09:45:07.379Z,90.27
2022-12-18T09:50:26.258Z,90.08
2022-12-18T09:55:38.687Z,90.37
2022-12-18T10:00:42.271Z,90.16
2022-12-18T10:06:00.772Z,90.79
2022-12-18T10:11:16.980Z,90.53
2022-12-18T10:16:27.122Z,90.52
2022-12-18T10:21:40.333Z,90.32
2022-12-18T10:26:48.710Z,90.58
2022-12-18T10:31:51.754Z,90.95
2022-12-18T10:43:08.890Z,91.15
2022-12-18T10:48:23.261Z,91.16
2022-12-18T10:53:31.199Z,91.39
2022-12-18T10:58:38.238Z,91.33
2022-12-18T11:10:44.916Z,91.45
2022-12-18T11:28:30.469Z,91.75
2022-12-18T11:34:05.142Z,91.89
2022-12-18T11:39:20.073Z,91.82
2022-12-18T11:50:18.133Z,91.81
2022-12-18T11:55:31.600Z,92.14
2022-12-18T12:00:44.901Z,92.27
2022-12-18T12:06:03.498Z,92.38
2022-12-18T12:11:41.736Z,92.29
2022-12-18T12:24:16.951Z,92.52
2022-12-18T12:35:56.359Z,92.85
2022-12-18T12:41:07.914Z,93.08
2022-12-18T13:06:25.054Z,92.71
2022-12-18T13:12:02.932Z,92.87
2022-12-18T13:36:48.855Z,92.62
2022-12-18T13:48:21.707Z,92.26
2022-12-18T13:53:43.041Z,91.94
2022-12-18T13:58:47.064Z,91.78
2022-12-18T16:16:47.990Z,91.48
2022-12-18T18:35:56.037Z,91.77
2022-12-18T18:40:59.952Z,91.89
2022-12-18T18:51:20.165Z,91.82
2022-12-18T18:56:56.457Z,91.89
2022-12-18T19:01:50.293Z,92.01
2022-12-18T19:06:54.313Z,91.78
2022-12-18T19:12:14.386Z,92.31
2022-12-18T19:17:16.985Z,92.75
2022-12-18T19:22:20.992Z,92.75
2022-12-18T19:27:23.740Z,92.62
2022-12-18T19:32:26.428Z,92.76
2022-12-18T19:37:30.303Z,93.20
2022-12-18T19:42:35.491Z,92.76
2022-12-18T19:47:38.338Z,92.75
2022-12-18T19:52:42.214Z,92.78
2022-12-18T19:57:44.954Z,92.79
2022-12-18T20:02:47.612Z,92.50
2022-12-18T20:07:51.840Z,92.68
2022-12-18T20:12:54.732Z,92.44
2022-12-18T20:17:58.010Z,92.50
2022-12-18T20:23:02.999Z,92.17
2022-12-18T20:28:06.155Z,92.38
2022-12-18T20:33:08.724Z,92.47
2022-12-18T20:38:12.638Z,92.06
2022-12-18T20:43:17.518Z,92.19
2022-12-18T20:48:25.053Z,92.49
2022-12-18T20:53:30.563Z,92.45
2022-12-18T20:58:33.108Z,92.67
2022-12-18T21:03:35.823Z,92.94
2022-12-18T21:08:40.190Z,92.97
2022-12-18T21:13:42.717Z,92.93
2022-12-18T21:18:45.189Z,93.00
2022-12-18T21:23:49.302Z,93.45
2022-12-18T21:28:55.020Z,93.60
2022-12-18T21:34:01.869Z,93.33
2022-12-18T21:39:06.333Z,93.66
2022-12-18T21:44:09.721Z,93.56
2022-12-18T21:49:15.044Z,93.59
2022-12-18T21:54:19.462Z,93.55
2022-12-18T21:59:23.392Z,93.81
2022-12-18T22:04:26.408Z,93.76
2022-12-18T22:09:30.806Z,93.68
2022-12-18T22:14:33.612Z,93.61
2022-12-18T22:19:42.672Z,93.85
2022-12-18T22:24:46.955Z,93.64
2022-12-18T22:30:08.188Z,93.75
2022-12-18T22:35:15.742Z,93.90
2022-12-18T22:40:24.648Z,93.63
2022-12-18T22:45:28.527Z,93.56
2022-12-18T22:50:33.577Z,93.55
2022-12-18T22:55:37.389Z,93.84
2022-12-18T23:00:41.094Z,93.50
2022-12-18T23:05:43.577Z,93.02
2022-12-18T23:10:47.400Z,93.22
2022-12-18T23:15:50.035Z,93.15
2022-12-18T23:20:52.691Z,93.08
2022-12-18T23:26:02.996Z,93.12
2022-12-18T23:31:07.309Z,93.14
2022-12-18T23:36:10.367Z,93.36
2022-12-18T23:41:16.656Z,93.21
2022-12-18T23:46:20.835Z,92.89
2022-12-18T23:51:25.552Z,92.99
2022-12-18T23:56:31.121Z,93.04
